Time;durP1;ratioP1;P1;durP2;ratioP2;P2;SDS_P1;SDS_P2;PMS_P1;PMS_P2;Temp;Humidity;BMP_temperature;BMP_pressure;BME280_temperature;BME280_humidity;BME280_pressure;Samples;Min_cycle;Max_cycle;Signal;HPM_P1;HPM_P2
2020/12/11 00:01:40;;;;;;;6.85;3.45;;;1.40;99.90;;;;;;10483816;28;20047;-51
2020/12/11 00:07:02;;;;;;;5.15;2.47;;;1.30;99.90;;;;;;10488334;28;20355;-50
2020/12/11 00:12:23;;;;;;;6.82;2.33;;;1.20;99.90;;;;;;10489179;28;20085;-50
2020/12/11 00:17:45;;;;;;;9.13;2.35;;;1.30;99.90;;;;;;10487568;28;20036;-50
2020/12/11 00:23:06;;;;;;;11.20;4.35;;;1.30;99.90;;;;;;10483659;28;20180;-50
2020/12/11 00:28:28;;;;;;;9.35;3.20;;;1.30;99.90;;;;;;10487286;28;20067;-50
2020/12/11 00:33:49;;;;;;;20.67;3.92;;;1.20;99.90;;;;;;10491008;28;20082;-50
2020/12/11 00:39:10;;;;;;;10.35;2.45;;;1.20;99.90;;;;;;10485574;28;20614;-50
2020/12/11 00:44:31;;;;;;;9.65;2.78;;;1.30;99.90;;;;;;10486734;28;20396;-50
2020/12/11 00:49:52;;;;;;;12.45;3.25;;;1.30;99.90;;;;;;10484259;28;20046;-50
2020/12/11 00:55:13;;;;;;;8.93;3.53;;;1.40;99.90;;;;;;10493410;28;20055;-50
2020/12/11 01:00:34;;;;;;;5.30;3.65;;;1.30;99.90;;;;;;10491903;28;20044;-50
2020/12/11 01:05:55;;;;;;;7.55;3.17;;;1.30;99.90;;;;;;10481856;28;20040;-50
2020/12/11 01:11:16;;;;;;;7.88;2.60;;;1.30;99.90;;;;;;10493014;28;20918;-50
2020/12/11 01:16:37;;;;;;;13.73;3.28;;;1.30;99.90;;;;;;10484028;28;20503;-50
2020/12/11 01:21:58;;;;;;;6.90;2.08;;;1.40;99.90;;;;;;10481249;28;20041;-50
2020/12/11 01:27:19;;;;;;;10.48;3.63;;;1.40;99.90;;;;;;10487433;28;20067;-50
2020/12/11 01:32:40;;;;;;;4.78;2.22;;;1.30;99.90;;;;;;10485938;28;20040;-51
2020/12/11 01:38:00;;;;;;;10.13;3.00;;;1.40;99.90;;;;;;10484460;28;20029;-50
2020/12/11 01:43:21;;;;;;;6.97;2.35;;;1.30;99.90;;;;;;10481859;28;20047;-50
2020/12/11 01:48:44;;;;;;;9.90;2.55;;;1.30;99.90;;;;;;10488668;28;20059;-50
2020/12/11 01:54:05;;;;;;;5.95;2.80;;;1.30;99.90;;;;;;10474957;28;20040;-50
2020/12/11 01:59:32;;;;;;;11.02;3.33;;;1.20;99.90;;;;;;10486294;28;20454;-50
2020/12/11 02:04:53;;;;;;;4.43;1.83;;;1.10;99.90;;;;;;10483995;28;20044;-50
2020/12/11 02:10:14;;;;;;;5.82;2.25;;;1.10;99.90;;;;;;10481394;28;20101;-50
2020/12/11 02:15:35;;;;;;;7.50;2.78;;;1.00;99.90;;;;;;10483780;28;20044;-50
2020/12/11 02:20:56;;;;;;;6.15;2.25;;;1.00;99.90;;;;;;10486513;28;20044;-50
2020/12/11 02:26:17;;;;;;;7.20;1.65;;;1.00;99.90;;;;;;10482516;28;20052;-50
2020/12/11 02:31:38;;;;;;;4.25;1.90;;;0.90;99.90;;;;;;10487779;28;20064;-50
2020/12/11 02:37:03;;;;;;;5.95;3.22;;;0.80;99.90;;;;;;10486653;28;20036;-50
2020/12/11 02:42:24;;;;;;;7.25;2.17;;;1.00;99.90;;;;;;10483802;28;20047;-50
2020/12/11 02:47:45;;;;;;;10.20;3.00;;;0.90;99.90;;;;;;10488162;28;20046;-50
2020/12/11 02:53:06;;;;;;;5.65;2.63;;;0.80;99.90;;;;;;10482007;28;20040;-50
2020/12/11 02:58:27;;;;;;;6.70;2.72;;;0.80;99.90;;;;;;10482579;28;20089;-50
2020/12/11 03:03:48;;;;;;;6.25;2.42;;;0.80;99.90;;;;;;10484807;28;20040;-50
2020/12/11 03:09:10;;;;;;;7.05;1.38;;;0.80;99.90;;;;;;10475180;28;20093;-50
2020/12/11 03:14:31;;;;;;;4.70;1.58;;;0.80;99.90;;;;;;10477917;28;20040;-50
2020/12/11 03:19:51;;;;;;;8.55;2.60;;;0.70;99.90;;;;;;10487459;28;20040;-50
2020/12/11 03:25:12;;;;;;;6.28;1.65;;;0.70;99.90;;;;;;10486076;28;20052;-50
2020/12/11 03:30:33;;;;;;;9.15;3.35;;;0.80;99.90;;;;;;10490757;28;20044;-50
2020/12/11 03:35:54;;;;;;;6.38;2.65;;;0.70;99.90;;;;;;10485887;28;20077;-50
2020/12/11 03:41:16;;;;;;;6.25;2.65;;;0.80;99.90;;;;;;10488852;28;21363;-50
2020/12/11 03:46:37;;;;;;;6.90;3.60;;;0.80;99.90;;;;;;10478321;28;20052;-50
2020/12/11 03:51:58;;;;;;;8.48;4.32;;;0.80;99.90;;;;;;10481055;28;20032;-50
2020/12/11 03:57:19;;;;;;;8.27;2.33;;;0.90;99.90;;;;;;10482748;28;20469;-50
2020/12/11 04:02:40;;;;;;;9.55;2.45;;;1.00;99.90;;;;;;10485622;28;20036;-50
2020/12/11 04:08:01;;;;;;;6.35;2.63;;;1.00;99.90;;;;;;10488811;28;20392;-50
2020/12/11 04:13:22;;;;;;;7.00;2.00;;;1.10;99.90;;;;;;10491015;28;20074;-50
2020/12/11 04:18:43;;;;;;;9.27;2.80;;;1.10;99.90;;;;;;10491960;28;20040;-50
2020/12/11 04:24:03;;;;;;;9.05;2.88;;;1.10;99.90;;;;;;10485977;28;20063;-50
2020/12/11 04:29:24;;;;;;;10.52;2.67;;;1.10;99.90;;;;;;10495866;28;20047;-50
2020/12/11 04:34:45;;;;;;;9.65;2.78;;;1.10;99.90;;;;;;10493683;28;20746;-50
2020/12/11 04:40:06;;;;;;;4.63;2.08;;;1.10;99.90;;;;;;10487674;28;20036;-50
2020/12/11 04:45:28;;;;;;;6.50;2.72;;;1.10;99.90;;;;;;10491375;28;20040;-50
2020/12/11 04:50:52;;;;;;;11.07;4.10;;;1.00;99.90;;;;;;10490421;28;20036;-50
2020/12/11 04:56:14;;;;;;;5.45;2.10;;;1.10;99.90;;;;;;10484952;28;20036;-50
2020/12/11 05:01:37;;;;;;;7.13;2.08;;;1.00;99.90;;;;;;10483631;28;20047;-50
2020/12/11 05:06:58;;;;;;;4.45;3.15;;;1.00;99.90;;;;;;10490472;28;20081;-50
2020/12/11 05:12:19;;;;;;;4.13;1.55;;;1.10;99.90;;;;;;10484613;28;20139;-50
2020/12/11 05:17:41;;;;;;;9.77;2.33;;;1.00;99.90;;;;;;10479351;28;20119;-50
2020/12/11 05:23:08;;;;;;;4.15;1.88;;;1.00;99.90;;;;;;10487763;28;20403;-50
2020/12/11 05:28:28;;;;;;;6.80;2.03;;;1.00;99.90;;;;;;10486641;28;20047;-50
2020/12/11 05:34:06;;;;;;;6.40;1.98;;;1.00;99.90;;;;;;10486709;28;20037;-50
2020/12/11 05:39:32;;;;;;;8.13;2.42;;;1.10;99.90;;;;;;10485905;28;20376;-50
2020/12/11 05:44:53;;;;;;;5.18;1.55;;;1.10;99.90;;;;;;10486964;28;20071;-50
2020/12/11 05:50:19;;;;;;;8.70;3.22;;;1.30;99.90;;;;;;10488802;28;20130;-50
2020/12/11 05:55:41;;;;;;;8.65;3.67;;;1.30;99.90;;;;;;10486171;28;20110;-50
2020/12/11 06:01:03;;;;;;;4.88;2.42;;;1.40;99.90;;;;;;10488771;28;20820;-50
2020/12/11 06:06:25;;;;;;;4.80;2.50;;;1.50;99.90;;;;;;10482845;28;20619;-50
2020/12/11 06:11:52;;;;;;;6.82;1.80;;;1.60;99.90;;;;;;10484708;28;20879;-50
2020/12/11 06:17:15;;;;;;;7.93;2.70;;;1.70;99.90;;;;;;10484628;28;20055;-50
2020/12/11 06:22:36;;;;;;;7.75;2.38;;;1.80;99.90;;;;;;10486970;28;20173;-50
2020/12/11 06:27:59;;;;;;;4.80;1.90;;;1.80;99.90;;;;;;10476713;28;20086;-50
2020/12/11 06:33:30;;;;;;;7.70;3.28;;;1.90;99.90;;;;;;10488692;28;20047;-50
2020/12/11 06:38:56;;;;;;;9.10;3.05;;;1.80;99.90;;;;;;10486078;28;20040;-50
2020/12/11 06:44:18;;;;;;;6.30;2.85;;;1.90;99.90;;;;;;10475277;28;20097;-50
2020/12/11 06:50:06;;;;;;;6.97;2.40;;;1.90;99.90;;;;;;10486744;28;20135;-50
2020/12/11 06:55:54;;;;;;;12.90;2.67;;;1.90;99.90;;;;;;10483056;28;20484;-50
2020/12/11 07:01:15;;;;;;;8.30;3.00;;;2.10;99.90;;;;;;10469726;28;20553;-50
2020/12/11 07:06:36;;;;;;;7.30;2.58;;;2.00;99.90;;;;;;10486565;28;20043;-50
2020/12/11 07:11:57;;;;;;;5.50;1.70;;;2.10;99.90;;;;;;10481049;28;20032;-50
2020/12/11 07:17:24;;;;;;;10.68;2.55;;;2.10;99.90;;;;;;10477238;28;20036;-50
2020/12/11 07:22:45;;;;;;;8.77;2.92;;;2.20;99.90;;;;;;10485474;28;20071;-50
2020/12/11 07:28:06;;;;;;;8.00;2.90;;;2.20;99.90;;;;;;10478075;28;20075;-50
2020/12/11 07:33:31;;;;;;;7.88;2.97;;;2.30;99.90;;;;;;10481491;28;20029;-50
2020/12/11 07:38:52;;;;;;;13.90;3.08;;;2.30;99.90;;;;;;10479128;28;20070;-53
2020/12/11 07:44:34;;;;;;;9.93;2.83;;;2.30;99.90;;;;;;10491550;28;20805;-53
2020/12/11 07:49:55;;;;;;;7.50;2.58;;;2.40;99.90;;;;;;10488837;28;20052;-53
2020/12/11 07:55:16;;;;;;;8.30;2.58;;;2.40;99.90;;;;;;10489028;28;20041;-52
2020/12/11 08:00:38;;;;;;;7.60;2.78;;;2.40;99.90;;;;;;10488169;28;20040;-53
2020/12/11 08:05:59;;;;;;;7.78;2.13;;;2.50;99.90;;;;;;10484021;28;20040;-52
2020/12/11 08:11:27;;;;;;;10.75;2.33;;;2.50;99.90;;;;;;10451791;28;20079;-52
2020/12/11 08:16:49;;;;;;;7.13;1.98;;;2.50;99.90;;;;;;10485473;28;20115;-52
2020/12/11 08:22:12;;;;;;;7.15;3.17;;;2.50;99.90;;;;;;10486824;28;20090;-53
2020/12/11 08:27:33;;;;;;;4.65;1.85;;;2.50;99.90;;;;;;10486849;28;20152;-52
2020/12/11 08:32:54;;;;;;;5.38;2.05;;;2.50;99.90;;;;;;10487152;28;20118;-53
2020/12/11 08:38:15;;;;;;;4.22;2.42;;;2.50;99.90;;;;;;10484738;28;21894;-52
2020/12/11 08:43:42;;;;;;;7.05;2.80;;;2.50;99.90;;;;;;10475471;28;20051;-52
2020/12/11 08:54:29;;;;;;;6.53;1.92;;;2.50;99.90;;;;;;10482304;28;20036;-50
2020/12/11 08:59:50;;;;;;;11.35;4.65;;;2.60;99.90;;;;;;10484010;28;20351;-50
2020/12/11 09:05:11;;;;;;;8.77;3.63;;;2.60;99.90;;;;;;10471122;28;20545;-50
2020/12/11 09:10:32;;;;;;;8.05;2.33;;;2.60;99.90;;;;;;10462286;28;20085;-50
2020/12/11 09:15:53;;;;;;;12.57;3.30;;;2.70;99.90;;;;;;10477049;28;20127;-50
2020/12/11 09:21:14;;;;;;;9.75;2.33;;;2.70;99.90;;;;;;10462019;28;20032;-50
2020/12/11 09:26:35;;;;;;;7.40;2.25;;;2.60;99.90;;;;;;10485880;28;20052;-50
2020/12/11 09:31:58;;;;;;;12.43;2.55;;;2.70;99.90;;;;;;10480639;28;20045;-50
2020/12/11 09:37:19;;;;;;;5.90;3.10;;;2.70;99.90;;;;;;10482884;28;20039;-50
2020/12/11 09:43:20;;;;;;;7.38;1.85;;;2.80;99.90;;;;;;10488476;28;20035;-50
2020/12/11 10:04:49;;;;;;;9.80;3.60;;;3.00;99.90;;;;;;10487603;28;20868;-50
2020/12/11 10:10:10;;;;;;;8.77;3.47;;;3.10;99.90;;;;;;10480286;28;20131;-48
2020/12/11 10:15:32;;;;;;;5.13;2.08;;;3.20;99.90;;;;;;10484273;28;20206;-48
2020/12/11 10:20:53;;;;;;;5.05;2.53;;;3.10;99.90;;;;;;10482245;28;20042;-48
2020/12/11 10:26:14;;;;;;;8.05;3.05;;;3.20;99.90;;;;;;10490027;28;20087;-48
2020/12/11 10:31:36;;;;;;;6.90;2.58;;;3.20;99.90;;;;;;10473168;28;20151;-48
2020/12/11 10:36:57;;;;;;;7.40;2.58;;;3.30;99.90;;;;;;10492595;28;20051;-48
2020/12/11 10:42:18;;;;;;;6.30;2.38;;;3.30;99.90;;;;;;10493218;28;20041;-48
2020/12/11 10:47:39;;;;;;;6.57;2.45;;;3.30;99.90;;;;;;10489357;28;20105;-48
2020/12/11 10:53:00;;;;;;;7.53;2.30;;;3.30;99.90;;;;;;10474175;28;20048;-48
2020/12/11 10:58:22;;;;;;;11.27;3.17;;;3.30;99.90;;;;;;10482639;28;20071;-48
2020/12/11 11:03:43;;;;;;;7.82;1.90;;;3.30;99.90;;;;;;10491495;28;20076;-48
2020/12/11 11:30:56;;;;;;;8.38;2.78;;;3.50;99.90;;;;;;10495690;28;20040;-48
2020/12/11 11:36:17;;;;;;;10.75;3.72;;;3.50;99.90;;;;;;10498961;28;20126;-48
2020/12/11 11:41:44;;;;;;;10.60;2.50;;;3.50;99.90;;;;;;10490802;28;20067;-48
2020/12/11 11:47:08;;;;;;;7.03;3.42;;;3.50;99.90;;;;;;10483814;28;20047;-48
2020/12/11 11:57:51;;;;;;;15.70;3.47;;;3.50;99.90;;;;;;10495649;28;20451;-48
2020/12/11 12:03:12;;;;;;;8.20;3.58;;;3.50;99.90;;;;;;10499625;28;20040;-48
2020/12/11 12:08:33;;;;;;;12.27;3.38;;;3.50;99.90;;;;;;10483358;28;20484;-48
2020/12/11 12:13:54;;;;;;;9.40;3.85;;;3.50;99.90;;;;;;10488190;28;20034;-48
2020/12/11 12:19:19;;;;;;;8.13;3.38;;;3.50;99.90;;;;;;10484842;28;20492;-48
2020/12/11 12:30:20;;;;;;;8.95;3.38;;;3.60;99.90;;;;;;10487196;28;20044;-48
2020/12/11 12:47:05;;;;;;;18.30;3.60;;;3.80;99.90;;;;;;10484716;28;20032;-48
2020/12/11 12:52:26;;;;;;;9.05;3.42;;;3.80;99.90;;;;;;10484820;28;20484;-48
2020/12/11 12:57:57;;;;;;;10.43;3.60;;;3.90;99.90;;;;;;10483693;28;20424;-49
2020/12/11 13:03:49;;;;;;;8.52;2.75;;;3.90;99.90;;;;;;10485991;28;20043;-48
2020/12/11 13:09:08;;;;;;;7.55;2.75;;;3.90;99.90;;;;;;10491237;28;20432;-49
2020/12/11 13:14:29;;;;;;;10.23;4.05;;;4.00;99.90;;;;;;10507579;28;20032;-48
2020/12/11 13:19:50;;;;;;;12.32;3.65;;;4.00;99.90;;;;;;10484121;28;20028;-48
2020/12/11 13:25:30;;;;;;;11.60;5.22;;;4.00;99.90;;;;;;10493131;28;20105;-49
2020/12/11 13:30:51;;;;;;;6.47;2.60;;;4.00;99.90;;;;;;10494230;28;20034;-48
2020/12/11 13:36:12;;;;;;;8.05;3.78;;;4.00;99.90;;;;;;10487441;28;20048;-49
2020/12/11 13:41:36;;;;;;;8.00;2.70;;;4.00;99.90;;;;;;10486808;28;20051;-48
2020/12/11 13:46:57;;;;;;;7.00;2.45;;;4.00;99.90;;;;;;10491861;28;20127;-49
2020/12/11 13:52:18;;;;;;;5.53;3.03;;;4.20;99.90;;;;;;10485090;28;20044;-48
2020/12/11 13:57:39;;;;;;;9.35;4.03;;;4.10;99.90;;;;;;10489188;28;20047;-49
2020/12/11 14:03:02;;;;;;;8.07;4.22;;;4.10;99.90;;;;;;10488781;28;20507;-49
2020/12/11 14:08:23;;;;;;;10.70;4.13;;;4.20;99.90;;;;;;10485190;28;20047;-49
2020/12/11 14:13:44;;;;;;;8.50;2.97;;;4.20;99.90;;;;;;10482226;28;20028;-48
2020/12/11 14:24:36;;;;;;;7.82;3.22;;;4.30;99.90;;;;;;10483829;28;20040;-49
2020/12/11 14:29:57;;;;;;;9.35;3.92;;;4.30;99.90;;;;;;10487080;28;20437;-49
2020/12/11 14:35:19;;;;;;;6.95;2.45;;;4.30;99.90;;;;;;10494708;28;20533;-48
2020/12/11 14:40:40;;;;;;;7.22;2.92;;;4.30;99.90;;;;;;10483389;28;20161;-48
2020/12/11 14:46:01;;;;;;;6.10;2.30;;;4.40;99.90;;;;;;10473739;28;20040;-48
2020/12/11 14:51:41;;;;;;;13.80;3.85;;;4.30;99.90;;;;;;10483086;28;20495;-48
2020/12/11 14:57:03;;;;;;;4.57;2.60;;;4.30;99.90;;;;;;10486890;28;20386;-49
2020/12/11 15:02:25;;;;;;;5.82;1.83;;;4.40;99.90;;;;;;10483994;28;20043;-49
2020/12/11 15:07:47;;;;;;;5.85;2.63;;;4.40;99.90;;;;;;10486287;28;20082;-48
2020/12/11 15:13:08;;;;;;;6.75;2.10;;;4.40;99.90;;;;;;10464642;28;20032;-48
2020/12/11 15:18:29;;;;;;;4.25;2.33;;;4.40;99.90;;;;;;10482455;28;20032;-48
2020/12/11 15:23:50;;;;;;;4.63;2.25;;;4.30;99.90;;;;;;10484535;28;20656;-49
2020/12/11 15:29:11;;;;;;;14.15;5.10;;;4.30;99.90;;;;;;10480440;28;20522;-48
2020/12/11 15:34:32;;;;;;;10.77;4.63;;;4.40;99.90;;;;;;10466337;28;20856;-48
2020/12/11 15:39:53;;;;;;;8.63;2.65;;;4.40;99.90;;;;;;10466465;28;20123;-49
2020/12/11 15:45:14;;;;;;;8.70;2.40;;;4.30;99.90;;;;;;10465032;28;21014;-49
2020/12/11 15:50:36;;;;;;;6.07;2.10;;;4.40;99.90;;;;;;10470050;28;20089;-49
2020/12/11 15:55:57;;;;;;;8.73;2.28;;;4.40;99.90;;;;;;10477402;28;20047;-49
2020/12/11 16:01:18;;;;;;;5.85;2.22;;;4.40;99.90;;;;;;10476299;28;20040;-49
2020/12/11 16:06:39;;;;;;;5.97;2.97;;;4.40;99.90;;;;;;10483292;28;20044;-49
2020/12/11 16:12:05;;;;;;;8.35;3.33;;;4.40;99.90;;;;;;10478305;28;20105;-48
2020/12/11 16:17:26;;;;;;;8.75;3.33;;;4.50;99.90;;;;;;10478510;28;20056;-49
2020/12/11 16:22:47;;;;;;;9.65;4.57;;;4.50;99.90;;;;;;10468458;28;20094;-49
2020/12/11 16:28:08;;;;;;;7.72;3.20;;;4.50;99.90;;;;;;10484307;28;20584;-49
2020/12/11 16:33:29;;;;;;;7.28;2.13;;;4.50;99.90;;;;;;10480015;28;20044;-49
2020/12/11 16:38:50;;;;;;;7.75;2.83;;;4.50;99.90;;;;;;10488331;28;20043;-50
2020/12/11 16:44:19;;;;;;;6.05;2.28;;;4.40;99.90;;;;;;10480329;28;20028;-49
2020/12/11 16:49:46;;;;;;;7.93;2.78;;;4.50;99.90;;;;;;10480707;28;20892;-49
2020/12/11 16:55:07;;;;;;;3.80;2.15;;;4.50;99.90;;;;;;10481807;28;20043;-49
2020/12/11 17:00:30;;;;;;;5.68;3.20;;;4.50;99.90;;;;;;10477274;28;20795;-49
2020/12/11 17:11:24;;;;;;;6.13;1.45;;;4.60;99.90;;;;;;10490654;28;20075;-49
2020/12/11 17:16:48;;;;;;;3.30;1.40;;;4.60;99.90;;;;;;10465031;28;20040;-49
2020/12/11 17:22:09;;;;;;;4.75;2.22;;;4.60;99.90;;;;;;10481758;28;20040;-49
2020/12/11 17:27:30;;;;;;;9.50;3.08;;;4.60;99.90;;;;;;10485241;28;20046;-49
2020/12/11 17:38:47;;;;;;;5.65;2.92;;;4.60;99.90;;;;;;10421528;28;20037;-49
2020/12/11 17:44:08;;;;;;;10.65;3.45;;;4.70;99.90;;;;;;10482585;28;20040;-49
2020/12/11 17:49:29;;;;;;;7.15;2.50;;;4.70;99.90;;;;;;10482163;28;20032;-49
2020/12/11 17:54:51;;;;;;;13.75;3.45;;;4.70;99.90;;;;;;10478322;28;20123;-49
2020/12/11 18:00:15;;;;;;;8.68;2.58;;;4.70;99.90;;;;;;10484196;28;20040;-49
2020/12/11 18:05:36;;;;;;;4.13;2.22;;;4.70;99.90;;;;;;10481253;28;20385;-49
2020/12/11 18:10:57;;;;;;;9.07;2.35;;;4.60;99.90;;;;;;10486124;28;20040;-50
2020/12/11 18:16:19;;;;;;;7.50;3.30;;;4.70;99.90;;;;;;10503073;28;20032;-49
2020/12/11 18:21:43;;;;;;;7.57;2.17;;;4.70;99.90;;;;;;10473437;28;20082;-49
2020/12/11 18:27:05;;;;;;;9.18;3.75;;;4.70;99.90;;;;;;10468330;28;20437;-49
2020/12/11 18:32:26;;;;;;;7.00;2.35;;;4.70;99.90;;;;;;10486914;28;20508;-49
2020/12/11 18:37:47;;;;;;;6.95;2.85;;;4.80;99.90;;;;;;10487942;28;20063;-49
2020/12/11 18:43:08;;;;;;;8.20;3.83;;;4.70;99.90;;;;;;10484538;28;20052;-50
2020/12/11 18:48:29;;;;;;;8.68;3.40;;;4.70;99.90;;;;;;10485898;28;20036;-49
2020/12/11 18:53:50;;;;;;;8.00;4.15;;;4.80;99.90;;;;;;10485981;28;20032;-49
2020/12/11 18:59:11;;;;;;;5.93;2.58;;;4.80;99.90;;;;;;10473028;28;20039;-50
2020/12/11 19:04:32;;;;;;;5.75;2.50;;;4.80;99.90;;;;;;10489505;28;20364;-50
2020/12/11 19:09:53;;;;;;;9.75;3.88;;;4.80;99.90;;;;;;10486522;28;20476;-50
2020/12/11 19:15:14;;;;;;;6.35;3.00;;;4.90;99.90;;;;;;10485556;28;20040;-50
2020/12/11 19:20:35;;;;;;;8.38;2.92;;;4.90;99.90;;;;;;10480308;28;20040;-50
2020/12/11 19:25:56;;;;;;;11.02;3.45;;;4.90;99.90;;;;;;10484215;28;20044;-50
2020/12/11 19:31:17;;;;;;;10.90;4.10;;;4.90;99.90;;;;;;10489050;28;20460;-50
2020/12/11 19:36:38;;;;;;;10.32;4.18;;;4.90;99.90;;;;;;10483387;28;20143;-50
2020/12/11 19:41:59;;;;;;;8.50;2.58;;;4.90;99.90;;;;;;10496944;28;20036;-50
2020/12/11 19:47:20;;;;;;;9.57;3.78;;;4.80;99.90;;;;;;10503853;28;23140;-50
2020/12/11 19:52:42;;;;;;;7.57;2.58;;;4.90;99.90;;;;;;10502989;28;20043;-50
2020/12/11 19:58:03;;;;;;;12.82;5.07;;;4.80;99.90;;;;;;10492252;28;20653;-50
2020/12/11 20:03:24;;;;;;;10.82;5.40;;;4.90;99.90;;;;;;10491525;28;20492;-50
2020/12/11 20:14:24;;;;;;;11.70;4.95;;;4.90;99.90;;;;;;10489373;28;20601;-50
2020/12/11 20:19:45;;;;;;;7.18;2.42;;;4.80;99.90;;;;;;10496095;28;20050;-50
2020/12/11 20:25:06;;;;;;;9.88;4.43;;;4.80;99.90;;;;;;10489981;28;20131;-50
2020/12/11 20:30:27;;;;;;;8.85;3.05;;;4.80;99.90;;;;;;10480538;28;20113;-50
2020/12/11 20:35:48;;;;;;;7.63;3.80;;;4.70;99.90;;;;;;10488485;28;20131;-50
2020/12/11 20:41:09;;;;;;;8.10;3.85;;;4.70;99.90;;;;;;10493313;28;20048;-50
2020/12/11 20:46:34;;;;;;;8.00;4.30;;;4.80;99.90;;;;;;10494167;28;20131;-50
2020/12/11 20:51:55;;;;;;;9.38;2.70;;;4.70;99.90;;;;;;10493811;28;20068;-50
2020/12/11 20:57:16;;;;;;;11.15;3.88;;;4.70;99.90;;;;;;10479431;28;20035;-50
2020/12/11 21:02:37;;;;;;;11.57;3.95;;;4.80;99.90;;;;;;10478353;28;20047;-50
2020/12/11 21:07:58;;;;;;;7.63;3.60;;;4.70;99.90;;;;;;10487887;28;20059;-50
2020/12/11 21:13:18;;;;;;;9.88;3.72;;;4.80;99.90;;;;;;10488870;28;20066;-50
2020/12/11 21:18:40;;;;;;;5.55;2.42;;;4.80;99.90;;;;;;10491763;28;20112;-50
2020/12/11 21:24:01;;;;;;;8.45;3.95;;;4.70;99.90;;;;;;10485291;28;20040;-50
2020/12/11 21:29:22;;;;;;;10.55;4.05;;;4.70;99.90;;;;;;10479762;28;20048;-50
2020/12/11 21:40:25;;;;;;;;;;;4.70;99.90;;;;;;10483896;28;20539;-50
2020/12/11 21:45:46;;;;;;;10.10;2.85;;;4.70;99.90;;;;;;10481876;28;19955;-50
2020/12/11 21:51:07;;;;;;;14.25;5.55;;;4.80;99.90;;;;;;10478064;28;20040;-50
2020/12/11 21:56:28;;;;;;;11.35;4.55;;;4.70;99.90;;;;;;10477401;28;20032;-50
2020/12/11 22:01:53;;;;;;;11.60;5.50;;;4.70;99.90;;;;;;10478143;28;20040;-50
2020/12/11 22:07:14;;;;;;;7.70;3.50;;;4.70;99.90;;;;;;10472756;28;20046;-50
2020/12/11 22:12:35;;;;;;;7.00;2.15;;;4.70;99.90;;;;;;10481720;28;20032;-50
2020/12/11 22:17:56;;;;;;;8.88;3.38;;;4.80;99.90;;;;;;10475990;28;20045;-50
2020/12/11 22:23:18;;;;;;;11.63;4.63;;;4.70;99.90;;;;;;10488863;28;20040;-50
2020/12/11 22:28:41;;;;;;;11.18;2.90;;;4.70;99.90;;;;;;10487538;28;20044;-50
2020/12/11 22:34:02;;;;;;;12.82;3.65;;;4.80;99.90;;;;;;10488753;28;20399;-50
2020/12/11 22:39:23;;;;;;;7.88;2.83;;;4.70;99.90;;;;;;10487249;28;20032;-50
2020/12/11 22:44:44;;;;;;;12.63;5.18;;;4.80;99.90;;;;;;10478894;28;20044;-50
2020/12/11 22:50:05;;;;;;;9.82;3.67;;;4.80;99.90;;;;;;10484199;28;20033;-50
2020/12/11 22:55:26;;;;;;;8.82;3.03;;;4.80;99.90;;;;;;10486254;28;20033;-50
2020/12/11 23:00:47;;;;;;;15.32;4.43;;;4.80;99.90;;;;;;10487374;28;20788;-50
2020/12/11 23:06:09;;;;;;;11.52;3.67;;;4.80;99.90;;;;;;10480881;28;20703;-50
2020/12/11 23:11:30;;;;;;;9.43;4.30;;;4.80;99.90;;;;;;10484598;28;20032;-50
2020/12/11 23:16:51;;;;;;;8.75;4.47;;;4.80;99.90;;;;;;10480766;28;20040;-50
2020/12/11 23:22:12;;;;;;;11.13;3.53;;;4.70;99.90;;;;;;10485082;28;20068;-50
2020/12/11 23:27:34;;;;;;;11.38;3.53;;;4.80;99.90;;;;;;10485808;28;20105;-50
2020/12/11 23:32:55;;;;;;;9.55;4.68;;;4.80;99.90;;;;;;10483205;28;20044;-50
2020/12/11 23:38:16;;;;;;;13.40;4.38;;;4.80;99.90;;;;;;10478642;28;20475;-50
2020/12/11 23:43:37;;;;;;;15.95;3.30;;;4.80;99.90;;;;;;10484001;28;20103;-50
2020/12/11 23:48:58;;;;;;;8.68;2.80;;;4.80;99.90;;;;;;10483025;28;20494;-50
2020/12/11 23:54:19;;;;;;;10.63;3.50;;;4.80;99.90;;;;;;10481793;28;20050;-50
2020/12/11 23:59:40;;;;;;;5.20;2.83;;;4.80;99.90;;;;;;10481678;28;20077;-50
